Time;durP1;ratioP1;P1;durP2;ratioP2;P2;SDS_P1;SDS_P2;PMS_P1;PMS_P2;Temp;Humidity;BMP_temperature;BMP_pressure;BME280_temperature;BME280_humidity;BME280_pressure;Samples;Min_cycle;Max_cycle;Signal;HPM_P1;HPM_P2
2021/07/19 00:00:12;;;;;;;16.92;15.15;;;;;;;24.76;61.49;99149.31;5049092;28;20033;-22
2021/07/19 00:02:38;;;;;;;17.80;13.93;;;;;;;24.63;62.04;99158.59;5048898;28;20099;-22
2021/07/19 00:05:04;;;;;;;18.65;14.88;;;;;;;24.18;63.27;99151.09;5048866;28;20128;-22
2021/07/19 00:07:29;;;;;;;19.60;15.30;;;;;;;24.15;63.42;99140.84;5048976;28;20481;-22
2021/07/19 00:09:55;;;;;;;19.83;15.75;;;;;;;24.27;63.08;99149.06;5048471;28;20024;-22
2021/07/19 00:12:20;;;;;;;19.65;16.45;;;;;;;24.01;64.18;99154.75;5048728;28;20055;-22
2021/07/19 00:14:46;;;;;;;18.98;16.90;;;;;;;23.73;65.23;99157.13;5048698;28;20040;-22
2021/07/19 00:17:13;;;;;;;21.10;16.80;;;;;;;23.94;64.18;99149.00;5048894;28;20087;-22
2021/07/19 00:19:38;;;;;;;18.80;16.25;;;;;;;23.98;64.18;99148.00;5048890;28;20558;-22
2021/07/19 00:22:04;;;;;;;18.08;15.65;;;;;;;24.05;64.27;99155.66;5048726;28;20065;-22
2021/07/19 00:24:29;;;;;;;19.40;15.57;;;;;;;24.28;63.74;99164.31;5048169;28;20039;-22
2021/07/19 00:26:55;;;;;;;19.50;16.08;;;;;;;23.95;65.01;99164.22;5048860;28;20455;-22
2021/07/19 00:29:20;;;;;;;19.45;17.42;;;;;;;24.21;64.15;99155.84;5048462;28;20029;-22
2021/07/19 00:31:46;;;;;;;19.73;16.70;;;;;;;24.16;64.55;99161.50;5048233;28;20497;-22
2021/07/19 00:34:11;;;;;;;19.95;17.02;;;;;;;23.66;66.03;99157.63;5048274;28;20037;-22
2021/07/19 00:36:37;;;;;;;19.02;17.13;;;;;;;23.96;64.92;99166.59;5048523;28;20040;-22
2021/07/19 00:39:06;;;;;;;20.50;18.00;;;;;;;24.00;64.84;99145.75;5048103;28;20033;-22
2021/07/19 00:41:33;;;;;;;21.15;16.80;;;;;;;24.43;63.31;99158.25;5048344;28;20063;-22
2021/07/19 00:43:58;;;;;;;20.97;17.87;;;;;;;24.63;62.67;99156.66;5048151;28;20491;-22
2021/07/19 00:46:24;;;;;;;20.95;17.77;;;;;;;24.27;64.59;99158.06;5047932;28;20032;-22
2021/07/19 00:48:49;;;;;;;20.95;17.70;;;;;;;24.18;64.55;99151.09;5047652;28;20045;-22
2021/07/19 00:51:15;;;;;;;20.00;17.15;;;;;;;24.25;64.39;99129.53;5048420;28;20029;-22
2021/07/19 00:53:40;;;;;;;22.63;17.92;;;;;;;24.09;65.40;99140.25;5030021;28;20122;-22
2021/07/19 00:56:06;;;;;;;20.50;18.33;;;;;;;24.30;64.40;99142.97;5047910;28;20033;-22
2021/07/19 00:58:32;;;;;;;22.30;18.05;;;;;;;24.24;64.45;99133.41;5047943;28;20041;-22
2021/07/19 01:00:57;;;;;;;19.98;18.05;;;;;;;24.60;63.62;99145.63;5047896;28;20036;-22
2021/07/19 01:03:24;;;;;;;21.60;19.27;;;;;;;24.83;62.96;99155.03;5030243;28;20048;-22
2021/07/19 01:05:49;;;;;;;20.50;18.55;;;;;;;24.73;63.75;99150.00;5030329;28;20059;-22
2021/07/19 01:08:15;;;;;;;20.92;18.55;;;;;;;24.85;62.60;99141.06;5047653;28;20032;-22
2021/07/19 01:10:40;;;;;;;21.63;19.42;;;;;;;24.68;63.16;99139.28;5047447;28;20025;-22
2021/07/19 01:13:07;;;;;;;20.85;18.80;;;;;;;24.93;62.58;99153.81;5047671;28;20059;-22
2021/07/19 01:15:34;;;;;;;24.67;20.05;;;;;;;24.45;64.24;99149.75;5047358;28;20029;-22
2021/07/19 01:18:00;;;;;;;22.17;20.07;;;;;;;24.27;64.63;99149.91;5047667;28;20033;-22
2021/07/19 01:21:04;;;;;;;21.55;19.25;;;;;;;24.72;63.38;99153.06;5046737;28;20263;-22
2021/07/19 01:24:07;;;;;;;22.80;20.42;;;;;;;24.96;62.51;99166.75;5044818;28;20116;-22
2021/07/19 01:26:54;;;;;;;22.30;20.08;;;;;;;25.00;62.55;99158.72;5047139;28;20025;-22
2021/07/19 01:29:19;;;;;;;25.40;20.50;;;;;;;24.90;63.14;99149.00;5047652;28;20040;-22
2021/07/19 01:31:45;;;;;;;23.75;20.90;;;;;;;24.08;65.71;99141.38;5013277;28;20033;-22
2021/07/19 01:34:31;;;;;;;20.80;18.80;;;;;;;23.83;66.46;99145.88;5047537;28;20028;-22
2021/07/19 01:36:58;;;;;;;22.83;20.42;;;;;;;24.02;66.25;99165.28;5028823;28;20123;-22
2021/07/19 01:39:24;;;;;;;22.95;20.67;;;;;;;24.29;65.55;99163.16;5029443;28;20455;-22
2021/07/19 01:41:50;;;;;;;26.30;21.15;;;;;;;24.11;66.00;99161.69;5029333;28;20068;-22
2021/07/19 01:44:15;;;;;;;22.60;20.23;;;;;;;23.62;68.03;99157.50;5029371;28;20025;-22
2021/07/19 01:46:41;;;;;;;23.00;20.70;;;;;;;23.57;67.77;99154.16;5047171;28;20036;-22
2021/07/19 01:49:07;;;;;;;23.52;21.17;;;;;;;23.56;68.00;99161.53;5028894;28;20053;-22
2021/07/19 01:51:33;;;;;;;24.75;20.02;;;;;;;23.31;68.01;99135.22;5012917;28;20052;-22
2021/07/19 01:53:58;;;;;;;22.55;20.45;;;;;;;23.51;68.02;99161.69;5029283;28;20481;-22
2021/07/19 01:56:24;;;;;;;22.98;20.55;;;;;;;23.82;64.63;99147.81;5028872;28;20025;-22
2021/07/19 01:58:50;;;;;;;23.00;20.55;;;;;;;24.08;62.79;99154.19;5029236;28;20040;-22
2021/07/19 02:01:17;;;;;;;23.27;19.73;;;;;;;24.00;63.19;99153.91;5029120;28;20409;-22
2021/07/19 02:03:42;;;;;;;23.15;20.63;;;;;;;24.09;64.12;99169.41;5029417;28;20123;-23
2021/07/19 02:06:08;;;;;;;22.52;20.02;;;;;;;24.24;64.06;99166.09;5029217;28;20025;-22
2021/07/19 02:08:34;;;;;;;22.67;20.30;;;;;;;24.18;63.75;99161.97;5012360;28;20029;-22
2021/07/19 02:11:00;;;;;;;21.60;19.45;;;;;;;24.22;64.05;99147.34;5029103;28;20025;-22
2021/07/19 02:13:26;;;;;;;28.25;19.77;;;;;;;24.38;62.42;99158.47;5029162;28;20029;-22
2021/07/19 02:15:53;;;;;;;22.90;18.63;;;;;;;24.43;63.37;99177.31;5029235;28;20449;-23
2021/07/19 02:18:20;;;;;;;24.48;19.23;;;;;;;24.43;62.94;99180.03;5046985;28;20152;-22
2021/07/19 02:20:46;;;;;;;27.92;20.48;;;;;;;24.54;62.72;99175.03;5046839;28;20039;-22
2021/07/19 02:23:11;;;;;;;22.80;20.00;;;;;;;24.41;62.85;99159.72;5012793;28;20044;-22
2021/07/19 02:25:38;;;;;;;26.45;20.88;;;;;;;24.54;62.68;99160.59;5047054;28;20029;-22
2021/07/19 02:28:04;;;;;;;26.23;21.53;;;;;;;24.90;61.97;99175.50;5047215;28;20037;-22
2021/07/19 02:30:29;;;;;;;26.60;22.95;;;;;;;24.73;61.11;99173.75;5046421;28;20432;-22
2021/07/19 02:32:56;;;;;;;24.63;20.80;;;;;;;24.25;61.75;99189.47;5049785;28;20035;-22
2021/07/19 02:35:22;;;;;;;23.55;21.15;;;;;;;24.30;62.24;99186.56;5032728;28;20472;-22
2021/07/19 02:37:49;;;;;;;27.73;21.13;;;;;;;24.36;62.83;99185.25;5050400;28;20111;-22
2021/07/19 02:40:17;;;;;;;23.60;21.23;;;;;;;24.18;62.46;99183.78;5050809;28;20090;-22
2021/07/19 02:42:43;;;;;;;26.75;21.05;;;;;;;24.26;62.83;99174.75;5032455;28;20033;-22
2021/07/19 02:45:10;;;;;;;66.83;24.00;;;;;;;24.15;63.17;99174.34;5032601;28;20040;-22
2021/07/19 02:47:36;;;;;;;26.43;21.10;;;;;;;24.23;63.46;99187.09;5050404;28;20029;-22
2021/07/19 02:50:03;;;;;;;27.88;21.27;;;;;;;24.20;63.08;99197.84;5015440;28;20052;-22
2021/07/19 02:52:29;;;;;;;28.92;20.48;;;;;;;24.17;64.21;99199.31;5050007;28;20029;-22
2021/07/19 02:54:54;;;;;;;32.22;21.90;;;;;;;24.30;64.32;99202.91;5032444;28;20124;-22
2021/07/19 02:57:20;;;;;;;33.35;21.83;;;;;;;24.45;62.31;99206.97;5050161;28;20040;-22
2021/07/19 02:59:45;;;;;;;24.98;19.98;;;;;;;24.50;62.47;99208.72;5050289;28;20033;-22
2021/07/19 03:02:11;;;;;;;27.02;21.15;;;;;;;24.64;62.49;99204.59;5050555;28;20029;-22
2021/07/19 03:04:36;;;;;;;26.30;20.40;;;;;;;24.58;62.47;99197.75;5031973;28;20159;-22
2021/07/19 03:07:02;;;;;;;31.52;22.02;;;;;;;24.28;63.33;99183.38;5015522;28;20783;-22
2021/07/19 03:09:27;;;;;;;24.88;20.17;;;;;;;24.57;63.00;99203.53;5032056;28;20408;-22
2021/07/19 03:11:53;;;;;;;29.05;20.42;;;;;;;24.42;63.45;99194.81;5016015;28;20036;-22
2021/07/19 03:14:23;;;;;;;28.40;21.45;;;;;;;23.88;65.48;99191.97;5015736;28;20041;-22
2021/07/19 03:16:49;;;;;;;28.50;21.90;;;;;;;24.01;65.08;99180.03;5032151;28;20029;-22
2021/07/19 03:19:16;;;;;;;27.55;22.75;;;;;;;24.23;64.80;99192.56;5032113;28;20029;-22
2021/07/19 03:21:42;;;;;;;33.08;23.33;;;;;;;23.75;65.96;99182.09;5032056;28;20063;-22
2021/07/19 03:24:11;;;;;;;30.95;24.17;;;;;;;24.25;64.61;99194.94;5049898;28;20071;-22
2021/07/19 03:26:38;;;;;;;31.88;22.90;;;;;;;24.54;63.31;99196.84;5015272;28;20516;-22
2021/07/19 03:29:04;;;;;;;26.90;22.80;;;;;;;24.59;62.17;99182.19;5049506;28;20025;-22
2021/07/19 03:31:29;;;;;;;34.08;25.23;;;;;;;24.72;62.11;99202.91;5049497;28;20029;-22
2021/07/19 03:33:55;;;;;;;29.95;25.83;;;;;;;24.60;62.25;99221.94;5031808;28;20037;-23
2021/07/19 03:36:20;;;;;;;36.22;27.02;;;;;;;24.36;63.00;99217.94;5049626;28;20041;-23
2021/07/19 03:38:46;;;;;;;31.77;27.48;;;;;;;24.27;63.35;99211.75;5049449;28;20896;-22
2021/07/19 03:41:13;;;;;;;32.92;27.05;;;;;;;24.40;62.96;99228.97;5031531;28;20552;-22
2021/07/19 03:43:39;;;;;;;35.80;26.95;;;;;;;24.21;63.48;99226.69;5031201;28;20500;-22
2021/07/19 03:46:04;;;;;;;35.70;25.92;;;;;;;24.29;62.77;99233.22;5031413;28;20044;-22
2021/07/19 03:48:30;;;;;;;42.28;27.52;;;;;;;24.30;63.43;99235.63;5029585;28;20083;-22
2021/07/19 03:50:55;;;;;;;36.30;25.10;;;;;;;24.11;64.10;99233.34;5013385;28;20021;-22
2021/07/19 03:53:21;;;;;;;30.38;24.13;;;;;;;24.06;64.27;99231.56;5031496;28;20473;-22
2021/07/19 03:55:47;;;;;;;26.77;23.95;;;;;;;24.25;63.79;99233.88;5014735;28;20024;-22
2021/07/19 03:58:13;;;;;;;32.15;25.42;;;;;;;24.57;63.16;99237.03;5031249;28;20060;-22
2021/07/19 04:00:39;;;;;;;27.75;24.55;;;;;;;24.64;63.13;99244.69;5031152;28;20017;-22
2021/07/19 04:03:19;;;;;;;26.85;24.08;;;;;;;24.37;63.80;99245.97;5030937;28;20033;-22
2021/07/19 04:05:45;;;;;;;25.85;23.15;;;;;;;24.61;63.31;99250.81;5032458;28;20108;-22
2021/07/19 04:08:11;;;;;;;24.98;22.38;;;;;;;24.54;63.49;99245.91;5031327;28;20823;-22
2021/07/19 04:10:37;;;;;;;27.48;22.48;;;;;;;24.45;63.53;99245.91;5030890;28;20044;-22
2021/07/19 04:13:06;;;;;;;25.65;22.40;;;;;;;24.44;64.01;99252.50;5048629;28;20040;-22
2021/07/19 04:15:32;;;;;;;24.75;22.13;;;;;;;24.01;65.28;99239.94;5015716;28;20036;-22
2021/07/19 04:17:58;;;;;;;25.63;23.02;;;;;;;24.45;64.16;99253.28;5031158;28;20044;-22
2021/07/19 04:20:23;;;;;;;25.80;22.65;;;;;;;24.54;63.30;99250.53;5048415;28;20420;-22
2021/07/19 04:22:49;;;;;;;24.38;21.85;;;;;;;24.65;63.14;99249.81;5030869;28;20044;-22
2021/07/19 04:25:14;;;;;;;26.88;23.52;;;;;;;24.62;63.44;99264.13;5014270;28;20029;-22
2021/07/19 04:27:41;;;;;;;25.83;23.10;;;;;;;24.68;63.77;99259.25;5048507;28;20033;-22
2021/07/19 04:30:07;;;;;;;28.40;24.02;;;;;;;24.80;62.99;99256.56;5048399;28;20036;-22
2021/07/19 04:32:32;;;;;;;26.40;23.70;;;;;;;24.80;62.92;99269.41;5030296;28;20112;-22
2021/07/19 04:34:58;;;;;;;27.25;24.38;;;;;;;24.57;63.41;99244.44;5030897;28;20111;-22
2021/07/19 04:37:23;;;;;;;29.85;24.98;;;;;;;24.75;63.57;99272.38;5048350;28;20033;-22
2021/07/19 04:39:49;;;;;;;32.10;24.02;;;;;;;25.02;62.42;99266.34;5048146;28;20032;-22
2021/07/19 04:42:14;;;;;;;30.88;23.45;;;;;;;24.95;62.76;99277.00;5048194;28;20064;-22
2021/07/19 04:44:40;;;;;;;29.42;24.15;;;;;;;25.04;62.62;99263.28;5047803;28;20053;-22
2021/07/19 04:47:07;;;;;;;28.90;23.38;;;;;;;25.17;62.48;99275.84;5048059;28;20033;-22
2021/07/19 04:49:36;;;;;;;28.80;22.58;;;;;;;25.03;62.00;99258.97;5047723;28;20064;-22
2021/07/19 04:52:01;;;;;;;25.42;21.83;;;;;;;25.41;61.69;99272.41;5048007;28;20036;-22
2021/07/19 04:54:28;;;;;;;27.75;22.08;;;;;;;25.46;60.83;99269.47;5046926;28;20036;-22
2021/07/19 04:56:56;;;;;;;23.88;21.40;;;;;;;25.23;61.89;99255.44;5013830;28;20036;-22
2021/07/19 04:59:21;;;;;;;;;;;;;;;25.66;60.66;99286.91;5048296;28;20032;-22
2021/07/19 05:01:51;;;;;;;24.85;22.25;;;;;;;25.80;60.72;99278.38;5030147;28;19913;-22
2021/07/19 05:04:16;;;;;;;30.95;24.45;;;;;;;25.60;60.72;99280.09;5029876;28;20115;-22
2021/07/19 05:06:44;;;;;;;30.02;24.48;;;;;;;25.67;60.29;99283.03;5029919;28;20739;-22
2021/07/19 05:09:09;;;;;;;49.53;38.70;;;;;;;25.51;60.61;99279.38;5030049;28;20028;-22
2021/07/19 05:11:35;;;;;;;46.55;38.30;;;;;;;25.53;60.47;99279.81;5029910;28;20087;-22
2021/07/19 05:14:01;;;;;;;36.58;27.35;;;;;;;25.71;59.68;99274.97;5013507;28;20033;-22
2021/07/19 05:16:29;;;;;;;32.28;24.80;;;;;;;25.99;58.92;99286.06;5029900;28;20876;-22
2021/07/19 05:18:55;;;;;;;24.90;22.20;;;;;;;25.77;59.38;99294.66;5030360;28;20029;-22
2021/07/19 05:21:20;;;;;;;24.38;21.08;;;;;;;25.93;59.03;99300.28;5029889;28;20036;-22
2021/07/19 05:23:45;;;;;;;29.63;23.85;;;;;;;25.76;59.69;99298.53;5031947;28;20043;-22
2021/07/19 05:26:13;;;;;;;21.73;18.50;;;;;;;25.87;58.48;99296.97;5048804;28;20397;-22
2021/07/19 05:28:39;;;;;;;36.95;27.08;;;;;;;25.99;58.68;99296.19;5029390;28;20024;-22
2021/07/19 05:31:04;;;;;;;24.55;20.92;;;;;;;25.61;59.92;99302.72;5047278;28;20033;-22
2021/07/19 05:33:29;;;;;;;24.23;20.52;;;;;;;25.58;60.29;99292.47;5047395;28;20029;-22
2021/07/19 05:35:55;;;;;;;23.42;19.60;;;;;;;25.48;60.50;99293.72;5047149;28;20037;-22
2021/07/19 05:38:22;;;;;;;20.40;18.13;;;;;;;25.49;60.22;99284.38;5047476;28;20029;-22
2021/07/19 05:40:48;;;;;;;19.30;16.70;;;;;;;25.57;60.95;99305.31;5046996;28;20094;-22
2021/07/19 05:43:14;;;;;;;23.45;17.10;;;;;;;25.75;58.79;99294.22;5047183;28;20044;-22
2021/07/19 05:45:39;;;;;;;21.50;16.30;;;;;;;25.92;59.57;99302.22;5029218;28;20060;-22
2021/07/19 05:48:06;;;;;;;20.63;16.33;;;;;;;25.74;58.13;99289.88;5047202;28;20032;-22
2021/07/19 05:50:31;;;;;;;22.42;17.17;;;;;;;26.01;59.56;99307.56;5046513;28;20144;-22
2021/07/19 05:52:57;;;;;;;20.63;16.00;;;;;;;26.24;58.00;99316.91;5047078;28;20029;-22
2021/07/19 05:55:23;;;;;;;19.88;15.80;;;;;;;26.30;57.98;99312.03;5046965;28;20036;-22
2021/07/19 05:57:49;;;;;;;22.77;16.52;;;;;;;26.15;59.02;99309.97;5047085;28;20180;-22
2021/07/19 06:00:16;;;;;;;22.92;18.90;;;;;;;26.23;59.71;99307.09;5047190;28;20029;-22
2021/07/19 06:02:42;;;;;;;21.38;17.60;;;;;;;26.59;57.91;99312.94;5046844;28;20029;-22
2021/07/19 06:05:08;;;;;;;22.10;16.98;;;;;;;26.64;58.95;99315.41;5047186;28;20128;-23
2021/07/19 06:07:34;;;;;;;20.25;17.42;;;;;;;26.63;58.04;99317.34;5051193;28;20032;-22
2021/07/19 06:10:00;;;;;;;25.88;17.42;;;;;;;26.86;57.42;99312.16;5051284;28;20040;-22
2021/07/19 06:12:26;;;;;;;20.90;16.58;;;;;;;26.93;56.25;99311.59;5050978;28;20438;-22
2021/07/19 06:14:54;;;;;;;21.00;15.98;;;;;;;27.16;56.03;99303.63;5051156;28;20847;-22
2021/07/19 06:17:20;;;;;;;21.17;16.30;;;;;;;27.72;54.99;99313.75;5051126;28;20029;-22
2021/07/19 06:19:45;;;;;;;22.58;16.10;;;;;;;27.83;54.46;99298.38;5051213;28;20847;-22
2021/07/19 06:22:11;;;;;;;24.23;15.88;;;;;;;27.23;56.13;99292.91;5051221;28;20041;-22
2021/07/19 06:24:37;;;;;;;19.92;15.77;;;;;;;26.71;58.53;99301.19;5050551;28;20116;-22
2021/07/19 06:27:04;;;;;;;19.38;15.32;;;;;;;27.39;55.75;99294.88;5050589;28;20093;-22
2021/07/19 06:29:29;;;;;;;19.52;16.27;;;;;;;27.77;54.70;99315.44;5050848;28;20033;-22
2021/07/19 06:31:55;;;;;;;17.33;15.48;;;;;;;27.60;54.90;99303.69;5050598;28;20408;-22
2021/07/19 06:34:20;;;;;;;21.67;14.70;;;;;;;27.92;53.57;99306.44;5050593;28;20045;-22
2021/07/19 06:36:46;;;;;;;18.35;16.15;;;;;;;28.00;53.21;99296.47;5050549;28;20036;-22
2021/07/19 06:39:11;;;;;;;20.42;14.63;;;;;;;28.02;53.64;99305.91;5050577;28;20058;-22
2021/07/19 06:41:37;;;;;;;19.25;15.35;;;;;;;28.06;54.18;99306.00;5050621;28;20032;-22
2021/07/19 06:44:02;;;;;;;18.98;15.13;;;;;;;27.73;54.89;99292.66;5050805;28;20033;-22
2021/07/19 06:46:28;;;;;;;17.15;14.98;;;;;;;27.88;54.33;99299.28;5050612;28;20037;-22
2021/07/19 06:48:53;;;;;;;19.33;15.30;;;;;;;27.78;53.30;99287.69;5049962;28;20056;-22
2021/07/19 06:51:19;;;;;;;18.77;14.40;;;;;;;28.03;52.43;99302.03;5050609;28;20036;-22
2021/07/19 06:53:44;;;;;;;18.95;15.70;;;;;;;28.39;51.38;99291.09;5050628;28;20029;-22
2021/07/19 06:56:10;;;;;;;19.58;14.95;;;;;;;28.58;52.72;99277.44;5050287;28;20040;-22
2021/07/19 06:58:35;;;;;;;19.42;14.90;;;;;;;28.41;53.84;99284.09;5050053;28;20393;-22
2021/07/19 07:01:01;;;;;;;18.48;14.30;;;;;;;28.31;53.68;99284.66;5050146;28;20032;-22
2021/07/19 07:03:26;;;;;;;20.85;15.57;;;;;;;28.48;54.30;99288.94;5051806;28;20480;-22
2021/07/19 07:05:52;;;;;;;18.08;15.25;;;;;;;28.69;54.25;99291.41;5050072;28;20029;-22
2021/07/19 07:08:17;;;;;;;20.52;16.00;;;;;;;28.45;54.43;99282.22;5050107;28;20040;-22
2021/07/19 07:10:43;;;;;;;20.55;15.90;;;;;;;28.65;53.87;99282.31;5049559;28;20070;-22
2021/07/19 07:13:09;;;;;;;18.67;15.98;;;;;;;28.98;52.33;99278.25;5050066;28;20400;-22
2021/07/19 07:15:38;;;;;;;19.65;16.35;;;;;;;28.57;53.75;99270.38;5049869;28;20492;-22
2021/07/19 07:18:05;;;;;;;18.02;15.82;;;;;;;28.54;54.47;99273.81;5049009;28;20082;-22
2021/07/19 07:20:31;;;;;;;21.60;16.23;;;;;;;29.13;52.64;99274.66;5049677;28;20490;-22
2021/07/19 07:22:56;;;;;;;20.08;16.73;;;;;;;29.60;52.40;99267.25;5049778;28;20493;-22
2021/07/19 07:25:22;;;;;;;18.40;16.35;;;;;;;28.94;52.50;99266.44;5049619;28;20039;-22
2021/07/19 07:27:47;;;;;;;19.20;17.23;;;;;;;29.29;53.22;99268.28;5050190;28;20527;-22
2021/07/19 07:30:15;;;;;;;19.42;16.13;;;;;;;29.29;52.31;99271.03;5049664;28;20033;-22
2021/07/19 07:32:40;;;;;;;21.35;17.70;;;;;;;29.44;52.12;99240.72;5049334;28;20145;-22
2021/07/19 07:35:06;;;;;;;20.85;18.15;;;;;;;29.56;51.21;99247.97;5049530;28;20531;-22
2021/07/19 07:37:32;;;;;;;20.60;17.42;;;;;;;29.38;51.97;99258.66;5049433;28;20381;-22
2021/07/19 07:39:58;;;;;;;20.27;18.30;;;;;;;29.03;54.10;99264.22;5049517;28;20056;-22
2021/07/19 07:42:23;;;;;;;20.27;18.27;;;;;;;29.56;52.64;99258.94;5049515;28;20847;-22
2021/07/19 07:44:49;;;;;;;23.38;19.40;;;;;;;29.61;52.02;99244.91;5049514;28;20036;-22
2021/07/19 07:47:14;;;;;;;21.38;17.30;;;;;;;30.25;49.57;99260.84;5049415;28;20037;-22
2021/07/19 07:49:40;;;;;;;24.42;18.20;;;;;;;30.43;50.25;99261.91;5048782;28;20049;-22
2021/07/19 07:52:07;;;;;;;21.17;18.55;;;;;;;30.31;51.41;99262.16;5049411;28;20068;-22
2021/07/19 07:54:33;;;;;;;20.05;17.95;;;;;;;30.36;50.08;99267.34;5048700;28;20455;-22
2021/07/19 07:56:58;;;;;;;21.33;19.08;;;;;;;29.71;52.31;99256.47;5049392;28;20037;-22
2021/07/19 07:59:24;;;;;;;21.75;19.45;;;;;;;29.85;51.42;99267.69;5049242;28;20024;-22
2021/07/19 08:01:49;;;;;;;23.73;18.88;;;;;;;30.18;51.98;99266.22;5049048;28;20154;-22
2021/07/19 08:04:14;;;;;;;20.38;18.38;;;;;;;30.52;50.78;99258.88;5049004;28;20040;-22
2021/07/19 08:06:40;;;;;;;20.90;18.42;;;;;;;30.40;50.11;99251.69;5048720;28;20036;-22
2021/07/19 08:09:05;;;;;;;19.58;17.42;;;;;;;30.41;50.07;99255.22;5048755;28;20051;-22
2021/07/19 08:11:34;;;;;;;17.00;15.13;;;;;;;30.15;50.51;99267.00;5050281;28;20091;-22
2021/07/19 08:14:00;;;;;;;15.35;13.70;;;;;;;30.49;47.75;99250.59;5048899;28;20024;-22
2021/07/19 08:16:25;;;;;;;16.48;13.52;;;;;;;30.56;47.46;99261.69;5048566;28;20044;-22
2021/07/19 08:18:50;;;;;;;18.63;11.80;;;;;;;30.39;46.83;99263.84;5030712;28;20025;-22
2021/07/19 08:21:16;;;;;;;18.55;13.80;;;;;;;30.57;47.67;99255.03;5048885;28;20029;-22
2021/07/19 08:23:41;;;;;;;16.80;14.57;;;;;;;30.40;49.16;99257.19;5048660;28;20094;-22
2021/07/19 08:26:08;;;;;;;17.13;14.43;;;;;;;31.07;47.61;99241.88;5048810;28;20718;-22
2021/07/19 08:28:34;;;;;;;18.25;13.88;;;;;;;30.99;47.84;99248.47;5047914;28;20353;-22
2021/07/19 08:30:59;;;;;;;20.00;15.48;;;;;;;31.19;47.97;99230.59;5047759;28;20499;-22
2021/07/19 08:33:25;;;;;;;14.98;13.35;;;;;;;31.11;47.47;99258.44;5048311;28;20032;-22
2021/07/19 08:35:51;;;;;;;15.63;13.70;;;;;;;30.86;48.43;99252.63;5048954;28;20029;-22
2021/07/19 08:38:16;;;;;;;17.00;13.77;;;;;;;30.74;47.46;99246.19;5048029;28;20036;-22
2021/07/19 08:40:43;;;;;;;17.60;14.82;;;;;;;30.47;47.72;99228.19;5048150;28;20033;-22
2021/07/19 08:43:10;;;;;;;16.23;14.55;;;;;;;30.48;48.69;99241.53;5030427;28;20087;-22
2021/07/19 08:45:36;;;;;;;17.98;15.18;;;;;;;31.27;46.32;99230.69;5048175;28;20047;-22
2021/07/19 08:48:02;;;;;;;19.30;14.23;;;;;;;31.01;47.26;99235.13;5048484;28;20029;-22
2021/07/19 08:50:27;;;;;;;17.27;13.93;;;;;;;31.33;46.78;99229.16;5047714;28;20049;-22
2021/07/19 08:52:54;;;;;;;15.05;13.55;;;;;;;31.54;45.65;99234.09;5047993;28;20550;-22
2021/07/19 08:55:19;;;;;;;15.82;13.95;;;;;;;31.80;44.67;99231.16;5047971;28;20033;-22
2021/07/19 08:57:49;;;;;;;16.23;13.00;;;;;;;31.72;43.03;99228.72;5047816;28;20416;-22
2021/07/19 09:00:15;;;;;;;14.73;12.02;;;;;;;31.71;40.53;99238.16;5047796;28;20033;-22
2021/07/19 09:02:41;;;;;;;21.33;11.90;;;;;;;32.27;39.39;99234.25;5047656;28;20104;-22
2021/07/19 09:05:06;;;;;;;14.40;12.38;;;;;;;32.38;38.84;99215.75;5047708;28;20040;-22
2021/07/19 09:07:32;;;;;;;16.30;12.93;;;;;;;32.90;38.66;99228.63;5047551;28;20094;-22
2021/07/19 09:09:59;;;;;;;15.35;13.75;;;;;;;32.98;39.05;99224.69;5047818;28;20444;-22
2021/07/19 09:12:33;;;;;;;17.63;13.55;;;;;;;32.58;39.96;99234.81;5047394;28;20090;-22
2021/07/19 09:14:58;;;;;;;17.23;12.70;;;;;;;32.37;39.89;99232.72;5047568;28;20115;-22
2021/07/19 09:17:25;;;;;;;18.85;12.82;;;;;;;32.21;39.89;99230.25;5047742;28;20464;-22
2021/07/19 09:19:51;;;;;;;16.88;12.77;;;;;;;31.94;38.94;99238.75;5047567;28;20107;-22
2021/07/19 09:22:32;;;;;;;14.00;12.05;;;;;;;32.24;39.02;99235.00;5047581;28;20109;-23
2021/07/19 09:25:27;;;;;;;16.63;12.77;;;;;;;32.00;40.15;99228.97;5047685;28;20128;-22
2021/07/19 09:28:11;;;;;;;15.45;13.23;;;;;;;32.03;39.42;99228.19;5030038;28;20508;-22
2021/07/19 09:30:44;;;;;;;16.30;14.05;;;;;;;32.03;39.71;99230.94;5047162;28;20176;-22
2021/07/19 09:33:14;;;;;;;14.57;13.07;;;;;;;32.42;38.88;99226.81;5047563;28;20499;-22
2021/07/19 09:35:42;;;;;;;14.15;12.05;;;;;;;32.92;37.01;99216.00;5046889;28;20033;-22
2021/07/19 09:38:09;;;;;;;15.30;11.90;;;;;;;32.92;36.93;99215.22;5029437;28;20029;-22
2021/07/19 09:40:36;;;;;;;17.02;12.13;;;;;;;33.25;35.73;99222.41;5046656;28;20029;-22
2021/07/19 09:43:24;;;;;;;17.67;11.97;;;;;;;33.12;37.60;99221.19;5047241;28;20044;-22
2021/07/19 09:46:03;;;;;;;14.48;11.75;;;;;;;32.87;36.53;99219.13;5031243;28;20075;-22
2021/07/19 09:48:29;;;;;;;19.00;13.18;;;;;;;32.80;35.93;99230.94;5047144;28;20527;-22
2021/07/19 09:50:55;;;;;;;16.02;12.55;;;;;;;33.40;36.06;99223.19;5048372;28;20186;-22
2021/07/19 09:53:38;;;;;;;16.90;13.25;;;;;;;33.62;36.01;99221.25;5046907;28;20057;-22
2021/07/19 09:56:19;;;;;;;16.25;12.70;;;;;;;33.58;36.06;99215.69;5047131;28;20025;-22
2021/07/19 09:58:47;;;;;;;14.90;12.48;;;;;;;33.58;35.22;99212.94;5046651;28;20540;-22
2021/07/19 10:01:26;;;;;;;14.98;12.65;;;;;;;34.19;34.94;99223.19;5029680;28;20078;-22
2021/07/19 10:04:14;;;;;;;15.45;13.45;;;;;;;34.20;34.35;99224.75;5029707;28;20041;-22
2021/07/19 10:06:40;;;;;;;18.13;13.38;;;;;;;33.89;35.02;99205.03;5046871;28;20079;-22
2021/07/19 10:09:06;;;;;;;14.82;12.27;;;;;;;34.42;34.68;99212.41;5047040;28;20032;-22
2021/07/19 10:11:33;;;;;;;15.85;13.70;;;;;;;33.96;34.40;99216.09;5046989;28;20032;-22
2021/07/19 10:13:59;;;;;;;17.92;13.38;;;;;;;34.16;35.79;99193.53;5046998;28;20033;-22
2021/07/19 10:16:28;;;;;;;17.25;14.38;;;;;;;34.60;33.77;99206.03;5046938;28;20040;-22
2021/07/19 10:18:54;;;;;;;15.18;12.98;;;;;;;34.42;33.25;99201.34;5046708;28;20090;-22
2021/07/19 10:21:21;;;;;;;16.77;13.07;;;;;;;34.10;34.21;99195.88;5047034;28;20029;-22
2021/07/19 10:23:46;;;;;;;;;;;;;;;33.98;35.32;99201.84;5047561;28;20037;-22
2021/07/19 10:26:12;;;;;;;19.10;13.53;;;;;;;33.59;36.16;99192.41;5029196;28;20333;-22
2021/07/19 10:28:38;;;;;;;17.75;12.68;;;;;;;33.95;35.05;99186.84;5029080;28;20555;-22
2021/07/19 10:31:03;;;;;;;18.27;13.10;;;;;;;34.45;34.61;99204.50;5046817;28;20024;-22
2021/07/19 10:33:29;;;;;;;14.30;12.40;;;;;;;34.30;33.77;99185.19;5046902;28;20060;-22
2021/07/19 10:35:57;;;;;;;16.80;12.25;;;;;;;35.00;33.89;99199.13;5012380;28;20040;-22
2021/07/19 10:38:25;;;;;;;18.08;11.35;;;;;;;35.26;32.61;99194.19;5012482;28;20497;-22
2021/07/19 10:40:54;;;;;;;17.30;11.45;;;;;;;35.16;32.52;99190.31;5013215;28;20067;-22
2021/07/19 10:43:19;;;;;;;14.50;11.15;;;;;;;35.31;31.71;99174.38;5012536;28;20929;-22
2021/07/19 10:45:50;;;;;;;15.60;10.05;;;;;;;34.75;33.24;99199.25;5047201;28;20040;-22
2021/07/19 10:48:26;;;;;;;12.98;10.10;;;;;;;34.96;32.18;99192.00;5046478;28;20025;-22
2021/07/19 10:50:52;;;;;;;15.43;11.73;;;;;;;34.70;33.58;99185.84;5046077;28;20573;-22
2021/07/19 10:53:22;;;;;;;14.80;10.20;;;;;;;34.87;33.76;99183.38;5048563;28;20045;-22
2021/07/19 10:56:00;;;;;;;11.75;9.13;;;;;;;35.12;33.60;99183.97;5050264;28;20040;-22
2021/07/19 10:58:39;;;;;;;13.63;9.70;;;;;;;35.68;31.75;99183.97;5049974;28;20037;-22
2021/07/19 11:01:04;;;;;;;15.07;9.90;;;;;;;35.73;32.45;99174.41;5049996;28;20424;-22
2021/07/19 11:03:40;;;;;;;12.10;8.63;;;;;;;35.58;32.22;99173.75;5050164;28;20037;-22
2021/07/19 11:06:06;;;;;;;11.82;9.35;;;;;;;35.39;32.76;99175.09;5050279;28;20060;-22
2021/07/19 11:08:31;;;;;;;10.38;8.85;;;;;;;35.30;32.02;99169.22;5050235;28;20558;-22
2021/07/19 11:10:58;;;;;;;11.25;9.25;;;;;;;34.99;32.55;99169.81;5049946;28;20766;-22
2021/07/19 11:13:29;;;;;;;12.15;9.05;;;;;;;35.35;32.22;99164.03;5049955;28;20063;-22
2021/07/19 11:15:54;;;;;;;12.43;8.90;;;;;;;35.27;32.95;99164.50;5050089;28;20454;-22